Time;durP1;ratioP1;P1;durP2;ratioP2;P2;SDS_P1;SDS_P2;PMS_P1;PMS_P2;Temp;Humidity;BMP_temperature;BMP_pressure;BME280_temperature;BME280_humidity;BME280_pressure;Samples;Min_cycle;Max_cycle;Signal;HPM_P1;HPM_P2
2022/03/01 00:00:47;;;;;;;9.32;6.57;;;;;;;2.97;84.77;101302.47;4991746;28;20030;-78
2022/03/01 00:03:13;;;;;;;7.57;6.25;;;;;;;2.92;84.89;101325.72;4993217;28;20362;-77
2022/03/01 00:05:38;;;;;;;8.95;6.47;;;;;;;3.00;85.47;101320.06;4993344;28;20053;-77
2022/03/01 00:08:05;;;;;;;8.77;6.70;;;;;;;2.97;84.71;101307.78;4993069;28;20109;-77
2022/03/01 00:10:30;;;;;;;8.68;6.60;;;;;;;2.83;85.04;101312.78;4991138;28;20037;-78
2022/03/01 00:12:56;;;;;;;10.45;6.75;;;;;;;2.95;84.98;101325.59;4993270;28;20092;-77
2022/03/01 00:15:21;;;;;;;10.27;7.15;;;;;;;2.97;85.03;101330.81;4993140;28;20033;-77
2022/03/01 00:17:47;;;;;;;10.50;7.05;;;;;;;2.82;85.15;101304.84;4991772;28;20062;-77
2022/03/01 00:20:12;;;;;;;9.27;7.32;;;;;;;2.82;84.36;101297.75;4992247;28;20531;-77
2022/03/01 00:22:39;;;;;;;10.73;7.28;;;;;;;2.87;84.31;101311.75;4993060;28;20031;-77
2022/03/01 00:25:06;;;;;;;12.90;7.25;;;;;;;2.86;85.00;101299.38;4991627;28;20034;-76
2022/03/01 00:27:31;;;;;;;9.07;7.15;;;;;;;2.95;85.30;101332.69;4992978;28;20034;-78
2022/03/01 00:29:57;;;;;;;9.88;7.15;;;;;;;3.06;85.30;101334.00;4993052;28;20026;-77
2022/03/01 00:32:22;;;;;;;7.68;6.13;;;;;;;3.10;84.50;101351.56;4991675;28;20034;-77
2022/03/01 00:34:49;;;;;;;8.68;6.82;;;;;;;3.02;84.12;101326.22;4992815;28;20049;-77
2022/03/01 00:37:16;;;;;;;8.15;6.22;;;;;;;2.99;84.55;101337.84;4999812;28;20034;-77
2022/03/01 00:39:41;;;;;;;8.32;6.60;;;;;;;2.93;84.37;101331.91;4997747;28;20065;-77
2022/03/01 00:42:07;;;;;;;6.63;5.88;;;;;;;2.92;84.22;101338.13;4991559;28;20058;-76
2022/03/01 00:44:33;;;;;;;9.38;5.93;;;;;;;2.94;84.74;101325.63;4992328;28;20089;-76
2022/03/01 00:47:01;;;;;;;7.13;5.70;;;;;;;3.16;85.12;101351.31;4992725;28;20461;-77
2022/03/01 00:49:26;;;;;;;6.72;5.63;;;;;;;2.94;85.11;101325.63;4991136;28;20026;-77
2022/03/01 00:51:54;;;;;;;6.57;5.28;;;;;;;3.05;84.75;101353.53;4991524;28;20030;-76
2022/03/01 00:54:19;;;;;;;6.78;5.45;;;;;;;3.13;84.26;101350.56;4991839;28;20121;-77
2022/03/01 00:56:45;;;;;;;6.32;5.63;;;;;;;3.06;84.48;101339.31;4992539;28;20118;-77
2022/03/01 00:59:10;;;;;;;7.63;5.95;;;;;;;3.04;83.65;101341.16;4992691;28;20026;-78
2022/03/01 01:01:36;;;;;;;6.57;5.07;;;;;;;3.16;83.66;101375.25;4990900;28;20069;-76
2022/03/01 01:04:02;;;;;;;6.53;5.10;;;;;;;3.17;83.35;101376.09;4991026;28;20076;-77
2022/03/01 01:06:28;;;;;;;6.70;5.13;;;;;;;3.23;83.64;101379.41;4974886;28;20042;-77
2022/03/01 01:08:53;;;;;;;6.07;4.28;;;;;;;3.22;84.10;101382.97;4975265;28;20070;-76
2022/03/01 01:11:20;;;;;;;6.93;5.43;;;;;;;3.14;83.73;101368.25;4990959;28;20042;-76
2022/03/01 01:13:46;;;;;;;5.90;4.95;;;;;;;3.10;82.43;101383.44;4991255;28;20026;-76
2022/03/01 01:16:12;;;;;;;7.80;5.45;;;;;;;2.98;82.39;101357.34;4992187;28;20404;-77
2022/03/01 01:18:43;;;;;;;5.60;4.72;;;;;;;3.19;82.70;101377.78;4992224;28;20037;-77
2022/03/01 01:21:11;;;;;;;6.68;4.93;;;;;;;3.22;82.65;101371.47;4990977;28;20038;-77
2022/03/01 01:23:37;;;;;;;6.45;4.95;;;;;;;2.99;82.46;101369.72;4992179;28;20100;-77
2022/03/01 01:26:02;;;;;;;5.70;4.43;;;;;;;2.98;81.88;101367.09;4991760;28;20037;-76
2022/03/01 01:28:28;;;;;;;5.85;4.57;;;;;;;3.13;81.75;101393.09;4990858;28;20035;-77
2022/03/01 01:30:55;;;;;;;6.80;5.07;;;;;;;3.12;82.21;101381.59;4992240;28;20143;-78
2022/03/01 01:33:20;;;;;;;5.85;4.90;;;;;;;3.19;81.87;101388.41;4990780;28;20108;-76
2022/03/01 01:35:46;;;;;;;6.95;5.28;;;;;;;3.21;81.46;101406.97;4992180;28;20026;-76
2022/03/01 01:38:11;;;;;;;7.45;4.97;;;;;;;3.03;80.43;101387.25;4991061;28;20034;-77
2022/03/01 01:40:38;;;;;;;8.48;5.78;;;;;;;3.03;80.30;101397.88;4990726;28;20117;-77
2022/03/01 01:43:05;;;;;;;8.30;5.93;;;;;;;3.12;80.92;101394.03;4991686;28;20050;-77
2022/03/01 01:45:32;;;;;;;7.95;5.47;;;;;;;3.02;81.13;101395.31;4992112;28;20035;-77
2022/03/01 01:47:58;;;;;;;7.90;5.75;;;;;;;2.98;81.40;101388.38;4992462;28;20161;-76
2022/03/01 01:50:25;;;;;;;8.85;5.65;;;;;;;3.06;81.47;101400.44;4990949;28;20038;-77
2022/03/01 01:52:51;;;;;;;7.07;5.65;;;;;;;2.98;80.84;101399.00;4990956;28;20509;-76
2022/03/01 01:55:19;;;;;;;7.32;5.95;;;;;;;3.04;80.94;101402.28;4991952;28;20022;-76
2022/03/01 01:57:44;;;;;;;7.38;5.50;;;;;;;3.05;81.32;101401.38;4992069;28;20578;-76
2022/03/01 02:00:11;;;;;;;7.35;6.07;;;;;;;3.07;81.90;101386.22;4992043;28;20030;-76
2022/03/01 02:02:38;;;;;;;9.25;6.30;;;;;;;3.18;82.31;101413.25;4990577;28;20054;-77
2022/03/01 02:05:07;;;;;;;7.85;6.07;;;;;;;3.18;81.17;101389.31;4992053;28;20465;-77
2022/03/01 02:07:34;;;;;;;8.65;5.97;;;;;;;3.13;80.93;101378.00;4993789;28;20421;-79
2022/03/01 02:10:02;;;;;;;7.57;6.57;;;;;;;3.03;80.63;101381.06;4994530;28;20050;-79
2022/03/01 02:12:27;;;;;;;10.27;6.85;;;;;;;2.91;80.27;101361.16;4980893;28;20109;-78
2022/03/01 02:14:54;;;;;;;9.18;6.90;;;;;;;2.74;80.10;101358.28;4997399;28;20166;-77
2022/03/01 02:17:19;;;;;;;9.57;7.05;;;;;;;2.76;80.99;101375.03;4995969;28;20448;-77
2022/03/01 02:19:47;;;;;;;10.43;7.43;;;;;;;2.65;81.21;101374.56;4978115;28;20106;-77
2022/03/01 02:22:13;;;;;;;8.13;7.28;;;;;;;2.60;81.42;101368.56;4993897;28;20038;-77
2022/03/01 02:24:40;;;;;;;13.02;8.73;;;;;;;2.64;81.86;101368.38;4977741;28;20030;-77
2022/03/01 02:27:05;;;;;;;12.35;8.52;;;;;;;2.61;81.72;101378.25;4993639;28;20045;-76
2022/03/01 02:29:32;;;;;;;11.82;8.77;;;;;;;2.62;81.82;101364.94;4993906;28;20034;-77
2022/03/01 02:32:02;;;;;;;12.25;8.00;;;;;;;2.50;81.88;101348.56;4995042;28;20033;-77
2022/03/01 02:34:27;;;;;;;11.88;8.68;;;;;;;2.56;81.71;101365.16;4995119;28;20537;-76
2022/03/01 02:36:53;;;;;;;13.60;7.95;;;;;;;2.50;81.65;101364.50;4993879;28;20058;-77
2022/03/01 02:39:18;;;;;;;13.63;8.23;;;;;;;2.45;81.00;101379.72;4994983;28;20464;-76
2022/03/01 02:41:45;;;;;;;14.63;10.00;;;;;;;2.38;80.73;101384.41;4995003;28;20476;-77
2022/03/01 02:44:13;;;;;;;12.45;8.75;;;;;;;2.42;80.87;101377.16;4993712;28;20077;-76
2022/03/01 02:46:41;;;;;;;12.13;9.00;;;;;;;2.35;81.34;101365.06;4995015;28;20031;-76
2022/03/01 02:49:10;;;;;;;14.85;9.57;;;;;;;2.41;81.53;101386.94;4993711;28;20030;-77
2022/03/01 02:51:37;;;;;;;13.80;10.18;;;;;;;2.40;81.82;101379.91;4995030;28;20069;-77
2022/03/01 02:54:04;;;;;;;13.18;9.15;;;;;;;2.37;81.51;101387.09;4994910;28;20026;-76
2022/03/01 02:56:29;;;;;;;16.02;10.48;;;;;;;2.38;81.54;101375.56;4977061;28;20449;-75
2022/03/01 02:58:55;;;;;;;13.20;9.90;;;;;;;2.46;81.37;101368.19;4993248;28;20057;-75
2022/03/01 03:01:25;;;;;;;15.98;9.18;;;;;;;2.39;81.17;101348.94;4960784;28;20081;-76
2022/03/01 03:03:50;;;;;;;14.10;9.65;;;;;;;2.44;81.16;101360.28;4994788;28;20057;-75
2022/03/01 03:06:17;;;;;;;13.23;9.77;;;;;;;2.48;81.35;101374.28;4993126;28;20533;-75
2022/03/01 03:08:44;;;;;;;14.25;9.85;;;;;;;2.42;81.09;101379.81;4994277;28;20104;-75
2022/03/01 03:11:10;;;;;;;13.20;8.60;;;;;;;2.37;80.41;101373.81;4994376;28;20484;-76
2022/03/01 03:13:36;;;;;;;13.05;8.95;;;;;;;2.40;81.00;101373.72;4993230;28;20038;-76
2022/03/01 03:16:03;;;;;;;12.85;9.50;;;;;;;2.33;80.64;101370.41;4976305;28;20027;-76
2022/03/01 03:18:30;;;;;;;11.95;9.18;;;;;;;2.24;80.87;101377.81;4994248;28;20417;-76
2022/03/01 03:20:55;;;;;;;16.17;9.55;;;;;;;2.26;81.60;101357.44;4992749;28;20065;-77
2022/03/01 03:23:21;;;;;;;12.02;8.70;;;;;;;2.22;81.36;101380.56;4992738;28;20044;-77
2022/03/01 03:25:46;;;;;;;15.05;10.73;;;;;;;2.23;81.24;101360.19;4994307;28;20461;-77
2022/03/01 03:28:12;;;;;;;19.67;13.13;;;;;;;2.24;81.53;101351.28;4995044;28;20070;-76
2022/03/01 03:30:37;;;;;;;13.27;9.30;;;;;;;2.25;81.49;101364.53;4994262;28;20022;-77
2022/03/01 03:33:03;;;;;;;16.35;10.13;;;;;;;2.33;81.72;101383.69;4993944;28;20062;-76
2022/03/01 03:35:28;;;;;;;12.98;9.18;;;;;;;2.30;81.37;101369.66;4994085;28;20022;-77
2022/03/01 03:37:54;;;;;;;10.82;7.93;;;;;;;2.25;81.21;101355.69;4992677;28;20109;-75
2022/03/01 03:40:19;;;;;;;14.35;9.63;;;;;;;2.25;81.34;101358.34;4993933;28;20030;-75
2022/03/01 03:42:46;;;;;;;14.75;9.70;;;;;;;2.19;81.68;101360.31;4993835;28;20650;-76
2022/03/01 03:45:13;;;;;;;12.07;8.80;;;;;;;2.25;81.03;101356.56;4993894;28;20026;-77
2022/03/01 03:47:39;;;;;;;14.02;10.07;;;;;;;2.30;80.70;101367.00;4994005;28;20539;-75
2022/03/01 03:50:05;;;;;;;14.65;9.85;;;;;;;2.36;81.29;101356.16;4996802;28;20031;-76
2022/03/01 03:52:31;;;;;;;11.95;8.60;;;;;;;2.35;81.21;101344.69;4998797;28;20046;-76
2022/03/01 03:54:57;;;;;;;14.98;9.25;;;;;;;2.34;81.21;101358.00;4992276;28;20080;-76
2022/03/01 03:57:22;;;;;;;12.20;9.35;;;;;;;2.43;80.92;101373.59;4993283;28;20401;-76
2022/03/01 03:59:48;;;;;;;12.00;9.02;;;;;;;2.34;79.20;101352.69;4993492;28;20026;-77
2022/03/01 04:02:13;;;;;;;14.75;9.93;;;;;;;2.19;79.77;101332.91;4993506;28;20030;-77
2022/03/01 04:04:39;;;;;;;14.38;9.00;;;;;;;2.18;80.13;101334.69;4993504;28;20078;-77
2022/03/01 04:07:04;;;;;;;13.93;8.63;;;;;;;2.09;78.82;101331.47;4993431;28;20026;-77
2022/03/01 04:09:30;;;;;;;13.85;9.57;;;;;;;2.07;79.32;101365.16;4993418;28;20033;-77
2022/03/01 04:11:55;;;;;;;13.23;8.68;;;;;;;1.99;79.63;101328.28;4993404;28;20034;-77
2022/03/01 04:14:21;;;;;;;14.70;9.35;;;;;;;1.90;80.19;101331.25;4993317;28;20032;-77
2022/03/01 04:16:47;;;;;;;15.07;9.30;;;;;;;2.00;80.33;101327.38;4993123;28;20022;-77
2022/03/01 04:19:13;;;;;;;19.20;11.20;;;;;;;1.94;79.95;101343.50;4993323;28;20102;-77
2022/03/01 04:21:39;;;;;;;15.07;10.25;;;;;;;1.93;80.35;101336.44;4991790;28;20449;-77
2022/03/01 04:24:06;;;;;;;14.07;10.02;;;;;;;2.00;80.87;101340.63;4991891;28;20026;-77
2022/03/01 04:26:32;;;;;;;17.55;10.45;;;;;;;1.87;80.18;101323.41;5008304;28;20101;-77
2022/03/01 04:28:58;;;;;;;12.63;8.27;;;;;;;1.91;79.72;101333.00;4992192;28;20466;-77
2022/03/01 04:31:23;;;;;;;16.30;9.18;;;;;;;1.98;80.24;101361.06;4993062;28;20113;-77
2022/03/01 04:33:49;;;;;;;16.95;10.18;;;;;;;2.03;80.43;101363.53;4991620;28;20463;-78
2022/03/01 04:36:15;;;;;;;13.77;8.82;;;;;;;2.03;79.71;101352.91;4992961;28;20077;-77
2022/03/01 04:38:41;;;;;;;12.57;8.45;;;;;;;2.02;79.70;101383.88;4992692;28;20401;-78
2022/03/01 04:41:07;;;;;;;15.82;9.88;;;;;;;2.00;80.02;101401.66;4992774;28;20036;-78
2022/03/01 04:43:32;;;;;;;11.85;8.85;;;;;;;1.90;80.34;101355.13;4992596;28;20062;-78
2022/03/01 04:45:58;;;;;;;13.38;8.02;;;;;;;1.92;79.80;101374.53;4991564;28;20065;-79
2022/03/01 04:48:24;;;;;;;12.93;9.18;;;;;;;1.86;79.53;101364.13;4992624;28;20097;-78
2022/03/01 04:50:51;;;;;;;15.55;10.10;;;;;;;2.08;79.81;101388.13;4991442;28;20125;-79
2022/03/01 04:53:17;;;;;;;15.95;9.90;;;;;;;2.17;79.51;101404.56;4991537;28;20088;-80
2022/03/01 04:55:43;;;;;;;16.52;11.00;;;;;;;2.02;79.27;101399.78;4991435;28;20034;-78
2022/03/01 04:58:10;;;;;;;15.13;10.30;;;;;;;1.98;79.14;101403.50;4991450;28;20030;-77
2022/03/01 05:00:35;;;;;;;19.13;12.07;;;;;;;2.11;78.97;101403.94;4992888;28;20491;-77
2022/03/01 05:03:01;;;;;;;19.40;11.13;;;;;;;2.16;78.69;101428.53;4993695;28;20062;-79
2022/03/01 05:05:26;;;;;;;16.83;11.38;;;;;;;2.32;78.97;101429.75;4995894;28;20045;-78
2022/03/01 05:07:52;;;;;;;17.92;12.23;;;;;;;2.27;79.33;101414.88;4992878;28;20113;-80
2022/03/01 05:10:19;;;;;;;18.23;10.60;;;;;;;2.49;79.46;101443.28;4994215;28;20034;-81
2022/03/01 05:12:50;;;;;;;18.65;11.40;;;;;;;2.45;79.40;101424.84;5008120;28;20026;-85
2022/03/01 05:15:19;;;;;;;18.40;10.48;;;;;;;2.50;79.42;101422.91;4992749;28;20026;-78
2022/03/01 05:17:46;;;;;;;16.63;11.35;;;;;;;2.71;79.22;101459.31;4993061;28;20031;-81
2022/03/01 05:20:15;;;;;;;17.63;11.25;;;;;;;2.78;78.18;101452.88;4991472;28;20023;-80
2022/03/01 05:22:41;;;;;;;18.60;11.38;;;;;;;2.59;77.79;101425.25;4992627;28;20037;-80
2022/03/01 05:25:10;;;;;;;15.88;10.50;;;;;;;2.84;77.76;101465.94;4992549;28;20061;-80
2022/03/01 05:27:37;;;;;;;17.95;10.77;;;;;;;2.87;77.52;101444.56;4994924;28;20035;-81
2022/03/01 05:30:08;;;;;;;18.42;10.20;;;;;;;3.00;76.81;101472.41;4992200;28;20388;-78
2022/03/01 05:32:37;;;;;;;16.15;9.63;;;;;;;2.85;76.33;101462.34;4992157;28;20135;-77
2022/03/01 05:35:04;;;;;;;16.23;10.18;;;;;;;2.99;75.50;101480.44;4994566;28;20037;-80
2022/03/01 05:37:30;;;;;;;17.30;9.60;;;;;;;2.86;75.27;101480.03;4998810;28;20496;-80
2022/03/01 05:39:56;;;;;;;17.35;9.85;;;;;;;2.83;75.39;101458.88;4993875;28;20428;-80
2022/03/01 05:42:23;;;;;;;14.52;9.10;;;;;;;2.85;74.67;101483.59;4995443;28;20026;-81
2022/03/01 05:44:50;;;;;;;12.43;9.10;;;;;;;2.93;73.75;101496.63;4995958;28;20116;-80
2022/03/01 05:47:15;;;;;;;19.52;11.82;;;;;;;2.89;74.31;101469.28;4994884;28;20718;-81
2022/03/01 05:49:42;;;;;;;20.80;10.95;;;;;;;3.08;75.40;101502.25;4996183;28;20034;-79
2022/03/01 05:52:08;;;;;;;17.38;10.75;;;;;;;3.04;75.78;101492.63;4996053;28;20022;-80
2022/03/01 05:54:33;;;;;;;21.75;12.43;;;;;;;2.94;76.28;101482.38;4994332;28;20030;-81
2022/03/01 05:56:59;;;;;;;15.65;10.57;;;;;;;2.88;75.12;101502.06;4995439;28;20080;-80
2022/03/01 05:59:24;;;;;;;18.65;11.35;;;;;;;2.93;77.14;101481.53;4994506;28;20065;-80
2022/03/01 06:01:50;;;;;;;21.98;13.35;;;;;;;2.86;77.01;101480.03;4993789;28;20038;-81
2022/03/01 06:04:16;;;;;;;18.33;11.20;;;;;;;2.78;77.68;101460.84;5010386;28;20069;-80
2022/03/01 06:06:41;;;;;;;20.42;11.25;;;;;;;2.78;77.02;101471.47;4995377;28;20401;-80
2022/03/01 06:09:07;;;;;;;26.45;11.60;;;;;;;2.76;76.97;101478.59;4994076;28;20037;-80
2022/03/01 06:11:32;;;;;;;15.52;9.85;;;;;;;2.72;77.59;101479.66;4995152;28;20057;-81
2022/03/01 06:13:58;;;;;;;19.73;11.75;;;;;;;2.68;78.09;101480.69;4999925;28;20035;-82
2022/03/01 06:16:24;;;;;;;18.95;11.90;;;;;;;2.68;78.35;101478.03;4994657;28;20103;-80
2022/03/01 06:18:49;;;;;;;19.45;11.38;;;;;;;2.73;78.94;101486.69;4995210;28;20714;-81
2022/03/01 06:21:15;;;;;;;19.92;12.25;;;;;;;2.66;79.53;101469.25;4993604;28;20058;-80
2022/03/01 06:23:41;;;;;;;13.73;9.20;;;;;;;2.85;80.06;101504.84;4994033;28;20550;-81
2022/03/01 06:26:06;;;;;;;12.25;8.10;;;;;;;2.65;79.57;101464.84;4993775;28;20105;-81
2022/03/01 06:28:32;;;;;;;14.32;10.00;;;;;;;2.71;78.73;101475.25;4995367;28;20034;-81
2022/03/01 06:30:58;;;;;;;17.02;10.82;;;;;;;2.72;79.13;101467.22;5009782;28;20421;-80
2022/03/01 06:33:24;;;;;;;14.75;9.43;;;;;;;2.95;79.60;101476.16;4993550;28;20034;-81
2022/03/01 06:35:49;;;;;;;19.20;9.48;;;;;;;2.94;79.27;101472.63;4993511;28;20054;-81
2022/03/01 06:38:15;;;;;;;15.07;9.25;;;;;;;3.09;80.18;101477.38;4994779;28;20477;-83
2022/03/01 06:40:40;;;;;;;13.73;9.57;;;;;;;3.05;79.94;101470.47;5009781;28;20478;-82
2022/03/01 06:43:06;;;;;;;17.80;10.57;;;;;;;3.09;79.44;101472.06;4994813;28;20133;-82
2022/03/01 06:45:32;;;;;;;14.82;9.43;;;;;;;3.16;79.04;101478.91;4993406;28;20037;-81
2022/03/01 06:47:58;;;;;;;11.05;7.93;;;;;;;3.21;77.98;101492.88;4994684;28;20054;-83
2022/03/01 06:50:25;;;;;;;13.52;8.15;;;;;;;3.11;77.37;101493.28;4994557;28;20457;-81
2022/03/01 06:52:50;;;;;;;26.50;13.35;;;;;;;3.09;76.52;101488.00;4993924;28;20595;-81
2022/03/01 06:55:16;;;;;;;13.27;9.20;;;;;;;3.16;76.49;101500.16;4994583;28;20030;-80
2022/03/01 06:57:43;;;;;;;12.10;8.15;;;;;;;3.10;76.16;101484.44;4994635;28;20037;-80
2022/03/01 07:00:11;;;;;;;16.08;9.70;;;;;;;2.93;75.64;101460.28;4993740;28;20394;-81
2022/03/01 07:02:40;;;;;;;17.67;10.57;;;;;;;2.98;75.32;101468.94;4996115;28;20035;-81
2022/03/01 07:05:12;;;;;;;18.33;9.80;;;;;;;2.98;75.43;101460.97;5008657;28;20046;-81
2022/03/01 07:07:38;;;;;;;18.35;10.60;;;;;;;3.05;76.41;101464.28;5009394;28;20412;-82
2022/03/01 07:10:06;;;;;;;17.85;10.23;;;;;;;2.95;76.19;101458.44;4992963;28;20136;-80
2022/03/01 07:12:31;;;;;;;14.95;9.68;;;;;;;2.95;75.95;101463.75;4992753;28;20169;-81
2022/03/01 07:14:57;;;;;;;18.60;10.80;;;;;;;3.11;75.54;101490.63;4993897;28;20481;-81
2022/03/01 07:17:23;;;;;;;18.58;10.98;;;;;;;3.05;75.90;101469.59;4992510;28;20408;-80
2022/03/01 07:19:50;;;;;;;16.30;10.27;;;;;;;2.89;75.53;101442.72;4992502;28;20527;-81
2022/03/01 07:22:17;;;;;;;17.48;10.63;;;;;;;2.88;75.15;101435.66;4993952;28;20137;-82
2022/03/01 07:24:43;;;;;;;17.92;10.55;;;;;;;2.97;75.47;101456.56;4993929;28;20515;-82
2022/03/01 07:27:09;;;;;;;16.23;10.82;;;;;;;3.16;75.85;101484.22;4993834;28;20134;-82
2022/03/01 07:29:36;;;;;;;17.45;10.13;;;;;;;3.08;74.79;101486.28;4992655;28;20026;-81
2022/03/01 07:32:04;;;;;;;15.55;10.30;;;;;;;3.16;75.40;101508.13;5009074;28;20041;-81
2022/03/01 07:34:30;;;;;;;15.85;9.95;;;;;;;3.00;76.16;101475.06;4993874;28;20034;-82
2022/03/01 07:36:56;;;;;;;20.67;10.93;;;;;;;3.05;75.62;101480.22;4992535;28;20137;-81
2022/03/01 07:39:21;;;;;;;22.60;10.60;;;;;;;2.96;75.08;101444.22;4994016;28;20026;-80
2022/03/01 07:41:47;;;;;;;21.70;10.48;;;;;;;3.10;75.60;101464.97;4992374;28;20117;-83
2022/03/01 07:44:13;;;;;;;17.95;10.35;;;;;;;3.26;76.60;101474.97;4993178;28;20124;-82
2022/03/01 07:46:38;;;;;;;25.67;14.77;;;;;;;3.32;75.10;101494.25;4993420;28;20476;-82
2022/03/01 07:49:04;;;;;;;13.88;9.68;;;;;;;3.20;74.73;101464.56;4993310;28;20485;-82
2022/03/01 07:51:29;;;;;;;24.88;12.68;;;;;;;3.19;73.71;101476.13;4993601;28;20030;-83
2022/03/01 07:53:55;;;;;;;15.63;10.07;;;;;;;3.37;74.70;101498.47;4993317;28;20552;-81
2022/03/01 07:56:21;;;;;;;16.65;9.80;;;;;;;3.22;74.86;101472.47;4994034;28;20386;-81
2022/03/01 07:58:50;;;;;;;16.70;10.38;;;;;;;3.52;75.35;101518.28;4996579;28;20053;-83
2022/03/01 08:01:15;;;;;;;18.33;10.63;;;;;;;3.32;73.95;101494.25;4994072;28;20033;-81
2022/03/01 08:03:41;;;;;;;13.75;8.82;;;;;;;3.45;73.38;101520.34;4993014;28;20034;-80
2022/03/01 08:06:07;;;;;;;14.60;8.98;;;;;;;3.48;73.30;101500.75;4993219;28;20042;-80
2022/03/01 08:08:32;;;;;;;13.75;8.90;;;;;;;3.68;74.38;101507.03;4994129;28;20425;-80
2022/03/01 08:10:58;;;;;;;16.90;10.48;;;;;;;3.79;73.19;101517.25;4991474;28;20030;-80
2022/03/01 08:13:24;;;;;;;18.40;10.13;;;;;;;3.82;73.27;101511.81;4991761;28;20125;-80
2022/03/01 08:15:50;;;;;;;22.05;12.05;;;;;;;3.78;73.03;101502.22;4993126;28;20408;-80
2022/03/01 08:18:16;;;;;;;21.25;11.60;;;;;;;4.01;73.14;101523.44;4993525;28;20101;-83
2022/03/01 08:20:47;;;;;;;16.27;9.77;;;;;;;4.11;73.27;101523.94;4996595;28;20526;-81
2022/03/01 08:23:12;;;;;;;15.85;10.25;;;;;;;4.10;73.11;101512.41;4996099;28;20094;-81
2022/03/01 08:25:38;;;;;;;11.98;8.38;;;;;;;4.09;72.85;101518.69;5007786;28;20054;-81
2022/03/01 08:28:03;;;;;;;13.15;8.63;;;;;;;4.00;72.56;101511.09;4992872;28;20030;-81
2022/03/01 08:30:29;;;;;;;14.68;8.82;;;;;;;4.12;72.70;101523.03;4991918;28;20435;-80
2022/03/01 08:32:55;;;;;;;12.45;9.02;;;;;;;4.18;70.68;101552.94;4992674;28;20034;-82
2022/03/01 08:35:21;;;;;;;13.10;9.20;;;;;;;4.05;72.15;101514.41;4991833;28;20488;-83
2022/03/01 08:37:47;;;;;;;15.07;10.10;;;;;;;4.21;71.31;101541.28;4996568;28;20042;-81
2022/03/01 08:40:13;;;;;;;16.70;9.25;;;;;;;4.48;71.60;101561.47;5007960;28;20057;-80
2022/03/01 08:42:39;;;;;;;14.90;10.35;;;;;;;4.55;71.63;101575.41;5010941;28;20069;-80
2022/03/01 08:45:07;;;;;;;16.25;9.77;;;;;;;4.47;72.02;101548.19;4992491;28;20038;-81
2022/03/01 08:47:33;;;;;;;14.10;9.60;;;;;;;4.56;70.94;101564.66;4990815;28;20449;-81
2022/03/01 08:49:59;;;;;;;14.43;8.57;;;;;;;4.63;71.73;101554.63;4990980;28;20022;-81
2022/03/01 08:52:26;;;;;;;12.90;9.45;;;;;;;4.67;72.61;101566.88;4992259;28;20023;-81
2022/03/01 08:54:52;;;;;;;12.85;9.23;;;;;;;4.75;71.97;101575.41;4992148;28;20085;-81
2022/03/01 08:57:17;;;;;;;13.68;8.93;;;;;;;4.83;71.24;101574.16;4991001;28;20393;-80
2022/03/01 08:59:43;;;;;;;11.63;8.20;;;;;;;4.94;70.46;101576.38;4992514;28;20501;-80
2022/03/01 09:02:09;;;;;;;18.25;10.35;;;;;;;4.85;70.66;101545.66;4990864;28;20045;-81
2022/03/01 09:04:34;;;;;;;13.65;9.45;;;;;;;5.00;70.35;101573.44;4992577;28;20028;-81
2022/03/01 09:07:00;;;;;;;12.13;8.15;;;;;;;4.90;69.95;101526.78;5007437;28;20062;-82
2022/03/01 09:09:26;;;;;;;14.60;9.68;;;;;;;4.99;70.30;101542.38;4990828;28;20034;-81
2022/03/01 09:11:51;;;;;;;12.45;8.80;;;;;;;4.99;70.29;101553.03;4990980;28;20034;-81
2022/03/01 09:14:17;;;;;;;9.35;7.63;;;;;;;4.75;69.29;101527.44;4991814;28;20046;-81
2022/03/01 09:16:43;;;;;;;11.57;7.80;;;;;;;4.78;69.49;101548.63;4992060;28;20031;-82
2022/03/01 09:19:10;;;;;;;14.65;9.07;;;;;;;4.77;70.18;101552.25;4991028;28;20413;-81
2022/03/01 09:21:36;;;;;;;15.95;9.35;;;;;;;4.73;70.02;101534.66;4990695;28;20026;-81
2022/03/01 09:24:01;;;;;;;13.88;9.30;;;;;;;4.78;70.73;101541.50;4992066;28;20019;-81
2022/03/01 09:26:27;;;;;;;15.13;8.85;;;;;;;4.64;69.46;101551.03;4991928;28;20049;-80
2022/03/01 09:28:52;;;;;;;10.73;7.93;;;;;;;4.47;70.49;101522.41;4992058;28;20037;-81
2022/03/01 09:31:18;;;;;;;17.88;10.55;;;;;;;4.73;70.20;101561.31;4992021;28;20054;-81
2022/03/01 09:33:44;;;;;;;14.55;8.80;;;;;;;4.53;68.86;101537.28;4992326;28;20132;-80
2022/03/01 09:36:14;;;;;;;12.00;8.82;;;;;;;4.58;68.28;101562.81;4990582;28;20019;-81
2022/03/01 09:38:42;;;;;;;18.70;11.02;;;;;;;4.51;69.70;101539.16;4990863;28;20074;-80
2022/03/01 09:41:10;;;;;;;14.82;9.10;;;;;;;4.48;68.98;101571.25;4990550;28;20037;-82
2022/03/01 09:43:37;;;;;;;19.27;10.88;;;;;;;4.31;69.54;101543.50;4991795;28;20516;-81
2022/03/01 09:46:03;;;;;;;15.32;9.70;;;;;;;4.22;70.11;101519.91;4990403;28;20488;-83
2022/03/01 09:48:29;;;;;;;18.05;10.88;;;;;;;4.50;71.30;101564.03;4991784;28;20042;-81
2022/03/01 09:50:56;;;;;;;13.18;8.70;;;;;;;4.37;69.62;101532.59;4991871;28;20019;-81
2022/03/01 09:53:22;;;;;;;20.02;10.30;;;;;;;4.40;70.80;101532.47;4991953;28;20080;-82
2022/03/01 09:55:47;;;;;;;15.63;8.48;;;;;;;4.37;69.69;101526.41;4991889;28;20030;-80
2022/03/01 09:58:14;;;;;;;19.85;11.57;;;;;;;4.44;68.94;101537.66;4991815;28;20102;-80
2022/03/01 10:00:39;;;;;;;15.68;9.45;;;;;;;4.42;68.97;101550.19;4991756;28;20475;-82
2022/03/01 10:03:07;;;;;;;15.20;9.13;;;;;;;4.35;68.82;101553.09;4991669;28;20022;-80
2022/03/01 10:05:34;;;;;;;20.95;9.27;;;;;;;4.41;69.75;101538.66;4991859;28;20101;-82
2022/03/01 10:08:24;;;;;;;21.05;10.90;;;;;;;4.31;69.52;101529.34;4991745;28;20058;-82
2022/03/01 10:10:53;;;;;;;25.17;11.93;;;;;;;4.26;70.13;101537.50;4991791;28;20050;-83
2022/03/01 10:13:28;;;;;;;18.23;10.90;;;;;;;4.44;69.60;101543.84;4993526;28;20096;-82
2022/03/01 10:16:16;;;;;;;17.08;10.52;;;;;;;4.62;71.11;101542.22;4993173;28;20508;-81
2022/03/01 10:18:49;;;;;;;16.73;9.43;;;;;;;4.63;70.66;101533.31;5003366;28;20088;-80
2022/03/01 10:21:16;;;;;;;14.43;8.93;;;;;;;4.55;68.62;101524.78;4993612;28;20026;-81
2022/03/01 10:23:50;;;;;;;14.10;9.25;;;;;;;4.44;68.18;101511.91;4991566;28;20037;-82
2022/03/01 10:26:30;;;;;;;16.27;9.40;;;;;;;4.62;69.35;101534.22;4992984;28;20506;-83
2022/03/01 10:29:00;;;;;;;17.35;9.95;;;;;;;4.74;69.28;101529.25;4995251;28;20037;-81
2022/03/01 10:31:28;;;;;;;18.05;10.07;;;;;;;4.50;68.13;101489.47;4994717;28;20029;-81
2022/03/01 10:34:06;;;;;;;22.00;12.02;;;;;;;4.67;67.86;101519.81;4993535;28;20054;-81
2022/03/01 10:36:34;;;;;;;20.10;11.25;;;;;;;4.68;68.45;101523.34;4996107;28;20028;-80
2022/03/01 10:39:04;;;;;;;15.02;9.73;;;;;;;4.67;68.47;101518.94;4995824;28;20085;-82
2022/03/01 10:41:33;;;;;;;19.17;9.88;;;;;;;4.67;68.57;101524.25;4993907;28;20030;-81
2022/03/01 10:43:59;;;;;;;21.20;11.75;;;;;;;4.69;68.51;101506.41;4993082;28;20046;-81
2022/03/01 10:46:30;;;;;;;14.40;9.82;;;;;;;4.79;67.90;101502.41;4993307;28;20038;-81
2022/03/01 10:49:08;;;;;;;16.50;10.05;;;;;;;4.74;67.62;101525.72;4995708;28;20109;-80
2022/03/01 10:51:46;;;;;;;24.98;12.35;;;;;;;4.55;68.00;101483.03;4993538;28;20027;-82
2022/03/01 10:54:11;;;;;;;15.30;9.45;;;;;;;4.61;67.76;101500.53;4993702;28;20188;-81
2022/03/01 10:56:37;;;;;;;17.05;10.27;;;;;;;4.59;67.87;101489.06;4994674;28;20468;-81
2022/03/01 10:59:05;;;;;;;17.90;10.25;;;;;;;4.62;67.17;101491.59;4993580;28;20022;-83
2022/03/01 11:01:30;;;;;;;15.82;9.85;;;;;;;4.48;66.77;101488.66;4994862;28;20117;-82
2022/03/01 11:03:56;;;;;;;16.23;10.52;;;;;;;4.35;68.48;101451.03;4995009;28;20105;-82
2022/03/01 11:06:23;;;;;;;18.40;10.80;;;;;;;4.59;68.78;101486.41;4993434;28;20026;-81
2022/03/01 11:08:50;;;;;;;18.40;9.75;;;;;;;4.59;68.31;101462.41;4995055;28;20033;-79
2022/03/01 11:11:21;;;;;;;13.57;8.70;;;;;;;4.71;66.68;101489.41;4994847;28;20026;-81
2022/03/01 11:13:46;;;;;;;14.48;10.05;;;;;;;4.74;67.05;101469.78;4993612;28;20610;-80
2022/03/01 11:16:29;;;;;;;16.95;9.57;;;;;;;4.92;67.13;101498.28;5009730;28;20477;-81
2022/03/01 11:19:03;;;;;;;13.52;8.38;;;;;;;4.99;67.06;101497.06;4995502;28;20027;-81
2022/03/01 11:21:31;;;;;;;16.08;9.38;;;;;;;4.96;68.42;101478.53;4993693;28;20041;-82